Shepperton, United Kingdom
Current Conditions -  °F | °C
As of 7:20 PM on Thursday 23 Oct 2014 (Local Time) from EGLL Reporting Station
Rain Showers Rain Showers  
Wind Chill: 59°   Ceiling: 4400
Heat Index: 59°   Visibility: 6mi
Dew Point: 55°   Wind: 10mph
Humidity: 88%   Direction: 210°SSW
Pressure: 30.03"   Gusts: NA
Location:  51.4°N, 0.45°W
Report Text: EGLL 231820Z 21009KT 180V240 9000 VCSH FEW019 SCT023 BKN044 15/13 Q1017 NOSIG
Loading
Personal Weather Stations






























Interactive Weather Map
Tropical Storm Tracking
New forecast layout! Learn more

10-Day Weather Forecast

Advertisements
Track Severe Weather on mobile